createdAt,value
2022-10-19T00:02:11.489Z,73.23
2022-10-19T00:05:18.247Z,72.54
2022-10-19T00:08:24.917Z,72.72
2022-10-19T00:11:32.619Z,73.14
2022-10-19T00:14:39.344Z,72.47
2022-10-19T00:17:45.815Z,72.02
2022-10-19T00:20:52.581Z,72.36
2022-10-19T00:23:59.371Z,71.28
2022-10-19T00:27:06.383Z,71.46
2022-10-19T00:30:13.468Z,71.60
2022-10-19T00:33:22.420Z,72.33
2022-10-19T00:36:32.182Z,72.22
2022-10-19T00:39:39.295Z,71.25
2022-10-19T00:42:46.120Z,70.23
2022-10-19T00:45:56.138Z,69.34
2022-10-19T00:49:09.894Z,69.01
2022-10-19T00:52:22.348Z,69.71
2022-10-19T00:55:29.121Z,71.59
2022-10-19T00:58:35.880Z,70.91
2022-10-19T01:01:43.591Z,70.93
2022-10-19T01:04:52.970Z,70.23
2022-10-19T01:08:00.442Z,70.05
2022-10-19T01:11:23.731Z,69.51
2022-10-19T01:14:45.617Z,69.48
2022-10-19T01:18:02.574Z,68.90
2022-10-19T01:21:20.142Z,68.36
2022-10-19T01:24:57.855Z,68.20
2022-10-19T01:28:19.233Z,67.97
2022-10-19T01:31:36.263Z,68.37
2022-10-19T01:34:50.061Z,70.19
2022-10-19T01:38:05.529Z,71.68
2022-10-19T01:41:19.531Z,71.03
2022-10-19T01:44:30.978Z,72.76
2022-10-19T01:47:42.546Z,71.98
2022-10-19T01:50:55.656Z,72.08
2022-10-19T01:54:06.718Z,72.08
2022-10-19T01:57:18.486Z,71.20
2022-10-19T02:00:27.147Z,71.36
2022-10-19T02:03:35.096Z,71.64
2022-10-19T02:06:42.267Z,70.95
2022-10-19T02:09:48.912Z,71.57
2022-10-19T02:12:57.293Z,70.94
2022-10-19T02:16:08.399Z,72.27
2022-10-19T02:19:16.910Z,72.06
2022-10-19T02:22:23.639Z,73.24
2022-10-19T02:25:30.364Z,71.37
2022-10-19T02:28:37.973Z,71.15
2022-10-19T02:31:45.438Z,70.96
2022-10-19T02:34:52.254Z,70.54
2022-10-19T02:38:02.789Z,72.18
2022-10-19T02:41:16.910Z,71.37
2022-10-19T02:44:28.308Z,72.45
2022-10-19T02:47:39.745Z,71.04
2022-10-19T02:50:48.588Z,70.29
2022-10-19T02:53:55.338Z,71.16
2022-10-19T02:57:02.165Z,70.50
2022-10-19T03:00:10.964Z,70.20
2022-10-19T03:03:17.642Z,69.74
2022-10-19T03:06:24.315Z,71.99
2022-10-19T03:09:31.006Z,70.56
2022-10-19T03:12:37.608Z,70.30
2022-10-19T03:15:44.305Z,70.93
2022-10-19T03:18:52.482Z,71.13
2022-10-19T03:21:59.193Z,70.57
2022-10-19T03:25:06.255Z,70.02
2022-10-19T03:28:12.894Z,70.60
2022-10-19T03:31:20.034Z,70.50
2022-10-19T03:34:26.617Z,72.45
2022-10-19T03:37:33.416Z,72.08
2022-10-19T03:40:40.341Z,72.00
2022-10-19T03:43:47.189Z,71.63
2022-10-19T03:46:53.780Z,73.04
2022-10-19T03:50:00.599Z,73.36
2022-10-19T03:53:07.269Z,72.80
2022-10-19T03:56:16.707Z,73.27
2022-10-19T03:59:23.064Z,71.83
2022-10-19T04:02:31.421Z,73.03
2022-10-19T04:05:37.931Z,72.28
2022-10-19T04:08:45.384Z,71.65
2022-10-19T04:11:52.480Z,71.61
2022-10-19T04:14:59.331Z,71.01
2022-10-19T04:18:06.090Z,70.57
2022-10-19T04:21:24.166Z,69.36
2022-10-19T04:24:30.891Z,69.41
2022-10-19T04:27:37.495Z,71.35
2022-10-19T04:30:44.207Z,71.41
2022-10-19T04:33:50.808Z,70.35
2022-10-19T04:36:59.651Z,70.22
2022-10-19T04:40:12.839Z,70.13
2022-10-19T04:43:21.792Z,69.67
2022-10-19T04:46:29.712Z,70.18
2022-10-19T04:49:36.275Z,69.65
2022-10-19T04:52:45.112Z,70.73
2022-10-19T04:55:51.647Z,70.19
2022-10-19T04:58:59.854Z,70.43
2022-10-19T05:02:06.747Z,70.79
2022-10-19T05:05:13.767Z,70.09
2022-10-19T05:08:20.432Z,70.47
2022-10-19T05:11:27.704Z,71.47
2022-10-19T05:14:37.832Z,71.29
2022-10-19T05:17:47.185Z,71.99
2022-10-19T05:21:01.004Z,71.96
2022-10-19T05:24:07.844Z,71.42
2022-10-19T05:27:14.412Z,71.63
2022-10-19T05:30:21.834Z,71.60
2022-10-19T05:33:28.500Z,70.91
2022-10-19T05:36:37.039Z,69.76
2022-10-19T05:39:43.930Z,69.91
2022-10-19T05:42:50.498Z,71.09
2022-10-19T05:45:57.383Z,70.75
2022-10-19T05:49:04.491Z,70.47
2022-10-19T05:52:11.043Z,71.55
2022-10-19T05:55:17.864Z,72.60
2022-10-19T05:58:25.142Z,73.25
2022-10-19T06:01:33.380Z,73.28
2022-10-19T06:04:40.199Z,73.28
2022-10-19T06:07:46.778Z,72.62
2022-10-19T06:10:53.884Z,72.05
2022-10-19T06:14:02.589Z,71.63
2022-10-19T06:17:09.345Z,70.55
2022-10-19T06:20:16.193Z,70.44
2022-10-19T06:23:22.866Z,71.22
2022-10-19T06:26:30.847Z,72.59
2022-10-19T06:29:38.022Z,71.99
2022-10-19T06:32:44.878Z,71.85
2022-10-19T06:35:51.775Z,71.04
2022-10-19T06:38:59.900Z,70.33
2022-10-19T06:42:06.706Z,70.68
2022-10-19T06:45:14.837Z,71.36
2022-10-19T06:48:22.006Z,71.20
2022-10-19T06:51:32.068Z,70.05
2022-10-19T06:54:38.775Z,70.43
2022-10-19T06:57:45.777Z,70.75
2022-10-19T07:00:58.295Z,71.20
2022-10-19T07:04:05.181Z,71.44
2022-10-19T07:07:11.944Z,73.55
2022-10-19T07:10:18.794Z,72.62
2022-10-19T07:13:25.739Z,71.86
2022-10-19T07:16:32.390Z,71.41
2022-10-19T07:19:39.467Z,71.72
2022-10-19T07:22:46.113Z,72.18
2022-10-19T07:25:54.018Z,72.58
2022-10-19T07:29:01.231Z,71.92
2022-10-19T07:32:08.246Z,72.31
2022-10-19T07:35:14.996Z,71.86
2022-10-19T07:38:21.589Z,71.67
2022-10-19T07:41:28.494Z,71.00
2022-10-19T07:44:35.259Z,70.27
2022-10-19T07:47:42.076Z,71.40
2022-10-19T07:50:51.485Z,72.42
2022-10-19T07:53:56.560Z,71.02
2022-10-19T07:57:03.194Z,70.01
2022-10-19T08:00:12.690Z,69.25
2022-10-19T08:03:57.637Z,69.79
2022-10-19T08:06:46.199Z,70.14
2022-10-19T08:09:54.131Z,69.93
2022-10-19T08:13:01.243Z,70.32
2022-10-19T08:16:20.997Z,69.96
2022-10-19T08:19:26.064Z,71.19
2022-10-19T08:22:33.079Z,71.46
2022-10-19T08:25:39.825Z,71.21
2022-10-19T08:28:46.685Z,72.05
2022-10-19T08:31:53.451Z,71.97
2022-10-19T08:35:00.111Z,72.82
2022-10-19T08:38:07.091Z,72.92
2022-10-19T08:41:24.285Z,72.28
2022-10-19T08:44:48.765Z,71.69
2022-10-19T08:48:08.088Z,71.45
2022-10-19T08:51:14.738Z,71.24
2022-10-19T08:54:22.036Z,71.18
2022-10-19T08:57:40.181Z,71.00
2022-10-19T09:00:52.270Z,69.50
2022-10-19T09:04:03.616Z,68.49
2022-10-19T09:07:32.723Z,68.63
2022-10-19T09:10:41.878Z,70.58
2022-10-19T09:14:05.991Z,69.89
2022-10-19T09:17:17.000Z,70.12
2022-10-19T09:20:28.254Z,70.07
2022-10-19T09:23:40.753Z,70.34
2022-10-19T09:26:53.469Z,69.86
2022-10-19T09:30:03.772Z,69.39
2022-10-19T09:33:17.240Z,68.79
2022-10-19T09:36:39.380Z,67.65
2022-10-19T09:39:54.845Z,66.29
2022-10-19T09:43:09.003Z,65.45
2022-10-19T09:46:27.373Z,65.82
2022-10-19T09:49:45.097Z,65.89
2022-10-19T09:52:53.691Z,65.27
2022-10-19T09:56:06.234Z,64.41
2022-10-19T09:59:24.251Z,64.60
2022-10-19T10:02:34.916Z,65.47
2022-10-19T10:05:48.676Z,66.96
2022-10-19T10:08:59.010Z,67.72
2022-10-19T10:12:09.080Z,69.12
2022-10-19T10:15:20.901Z,68.93
2022-10-19T10:18:29.813Z,69.31
2022-10-19T10:21:47.250Z,68.90
2022-10-19T10:24:57.491Z,66.63
2022-10-19T10:28:18.238Z,66.29
2022-10-19T10:31:28.680Z,67.43
2022-10-19T10:34:58.539Z,66.39
2022-10-19T10:38:13.824Z,66.63
2022-10-19T10:41:24.138Z,66.85
2022-10-19T10:44:35.167Z,67.85
2022-10-19T10:47:48.219Z,66.04
2022-10-19T10:50:55.379Z,66.74
2022-10-19T10:54:16.948Z,67.59
2022-10-19T10:57:26.659Z,66.81
2022-10-19T11:00:35.490Z,67.33
2022-10-19T11:03:51.643Z,65.68
2022-10-19T11:07:02.967Z,65.32
2022-10-19T11:10:21.274Z,65.90
2022-10-19T11:13:34.417Z,65.09
2022-10-19T11:16:46.476Z,65.30
2022-10-19T11:19:53.805Z,65.50
2022-10-19T11:23:12.214Z,64.21
2022-10-19T11:26:27.685Z,63.71
2022-10-19T11:29:49.982Z,63.05
2022-10-19T11:33:07.929Z,60.97
2022-10-19T11:36:26.058Z,61.27
2022-10-19T11:39:42.867Z,65.22
2022-10-19T11:43:02.761Z,64.06
2022-10-19T11:46:15.797Z,63.04
2022-10-19T11:49:38.615Z,61.15
2022-10-19T11:52:54.276Z,59.82
2022-10-19T11:56:09.090Z,59.82
2022-10-19T11:59:28.532Z,61.88
2022-10-19T12:03:00.361Z,60.55
2022-10-19T12:06:18.415Z,61.25
2022-10-19T12:09:40.627Z,63.09
2022-10-19T12:12:50.231Z,61.84
2022-10-19T12:16:00.521Z,60.15
2022-10-19T12:19:14.021Z,57.63
2022-10-19T12:22:23.571Z,58.79
2022-10-19T12:25:30.496Z,58.71
2022-10-19T12:28:40.001Z,61.52
2022-10-19T12:31:49.215Z,61.39
2022-10-19T12:35:03.396Z,59.30
2022-10-19T12:38:16.865Z,60.88
2022-10-19T12:41:32.411Z,62.39
2022-10-19T12:45:03.671Z,59.45
2022-10-19T12:48:25.508Z,58.51
2022-10-19T12:51:45.617Z,60.90
2022-10-19T12:54:52.551Z,62.33
2022-10-19T12:58:06.234Z,61.45
2022-10-19T13:01:19.078Z,59.41
2022-10-19T13:04:28.698Z,60.55
2022-10-19T13:07:37.883Z,61.99
2022-10-19T13:11:09.976Z,62.24
2022-10-19T13:14:44.139Z,59.83
2022-10-19T13:17:52.004Z,59.02
2022-10-19T13:21:00.443Z,59.71
2022-10-19T13:24:29.733Z,60.95
2022-10-19T13:27:40.495Z,60.93
2022-10-19T13:31:09.351Z,59.99
2022-10-19T13:34:18.249Z,60.05
2022-10-19T13:37:24.984Z,59.12
2022-10-19T13:40:33.517Z,60.38
2022-10-19T13:43:52.401Z,61.44
2022-10-19T13:47:25.414Z,62.14
2022-10-19T13:50:42.609Z,62.23
2022-10-19T13:54:01.226Z,61.91
2022-10-19T13:57:24.295Z,58.37
2022-10-19T14:00:35.769Z,57.87
2022-10-19T14:03:57.093Z,58.83
2022-10-19T14:07:12.278Z,59.79
2022-10-19T14:10:22.782Z,59.92
2022-10-19T14:13:36.237Z,58.25
2022-10-19T14:16:56.038Z,58.05
2022-10-19T14:20:25.035Z,57.65
2022-10-19T14:23:34.436Z,57.58
2022-10-19T14:26:41.255Z,56.15
2022-10-19T14:29:50.258Z,55.71
2022-10-19T14:33:01.132Z,55.68
2022-10-19T14:36:17.304Z,54.75
2022-10-19T14:39:33.542Z,55.79
2022-10-19T14:42:43.765Z,56.31
2022-10-19T14:46:10.192Z,56.69
2022-10-19T14:49:17.001Z,57.85
2022-10-19T14:52:29.274Z,58.74
2022-10-19T14:55:40.539Z,58.68
2022-10-19T14:58:53.988Z,58.71
2022-10-19T15:02:03.638Z,58.64
2022-10-19T15:05:22.251Z,58.33
2022-10-19T15:08:40.380Z,57.33
2022-10-19T15:11:50.032Z,57.66
2022-10-19T15:14:58.562Z,56.84
2022-10-19T15:18:13.173Z,56.91
2022-10-19T15:21:23.638Z,56.96
2022-10-19T15:24:30.734Z,57.82
2022-10-19T15:27:39.404Z,58.60
2022-10-19T15:30:46.643Z,59.38
2022-10-19T15:33:55.050Z,60.08
2022-10-19T15:37:03.580Z,60.82
2022-10-19T15:40:21.203Z,61.35
2022-10-19T15:43:38.847Z,61.99
2022-10-19T15:47:23.410Z,62.55
2022-10-19T15:50:38.542Z,63.69
2022-10-19T15:53:45.285Z,57.92
2022-10-19T15:56:56.455Z,57.53
2022-10-19T16:00:09.247Z,59.60
2022-10-19T16:03:16.445Z,59.96
2022-10-19T16:06:26.011Z,65.72
2022-10-19T16:09:32.857Z,64.67
2022-10-19T16:12:39.608Z,58.80
2022-10-19T16:15:50.010Z,56.46
2022-10-19T16:19:04.777Z,58.15
2022-10-19T16:22:11.546Z,59.14
2022-10-19T16:25:21.192Z,61.05
2022-10-19T16:28:27.919Z,62.27
2022-10-19T16:31:34.562Z,67.03
2022-10-19T16:34:41.464Z,66.92
2022-10-19T16:37:48.182Z,60.12
2022-10-19T16:40:55.008Z,56.49
2022-10-19T16:44:01.656Z,58.53
2022-10-19T16:47:08.231Z,60.29
2022-10-19T16:50:14.779Z,61.42
2022-10-19T16:53:21.304Z,64.78
2022-10-19T16:56:30.719Z,63.45
2022-10-19T16:59:37.514Z,60.66
2022-10-19T17:02:45.832Z,56.41
2022-10-19T17:05:53.503Z,57.77
2022-10-19T17:12:28.019Z,61.89
2022-10-19T17:15:43.052Z,64.28
2022-10-19T17:18:52.380Z,63.78
2022-10-19T17:21:59.684Z,61.47
2022-10-19T17:25:07.308Z,56.56
2022-10-19T17:28:13.946Z,57.01
2022-10-19T17:31:20.660Z,60.53
2022-10-19T17:34:28.532Z,62.12
2022-10-19T17:37:35.705Z,67.70
2022-10-19T17:40:43.050Z,66.07
2022-10-19T17:43:51.868Z,62.51
2022-10-19T17:46:58.628Z,57.08
2022-10-19T17:50:05.705Z,57.36
2022-10-19T17:53:12.335Z,58.26
2022-10-19T17:56:21.076Z,60.02
2022-10-19T17:59:34.838Z,62.28
2022-10-19T18:02:44.462Z,66.16
2022-10-19T18:06:00.873Z,61.00
2022-10-19T18:09:10.271Z,63.50
2022-10-19T18:12:16.785Z,61.70
2022-10-19T18:15:23.518Z,57.50
2022-10-19T18:18:32.013Z,57.50
2022-10-19T18:21:41.014Z,59.85
2022-10-19T18:24:47.908Z,65.43
2022-10-19T18:27:54.612Z,66.83
2022-10-19T18:31:07.573Z,63.47
2022-10-19T18:34:16.131Z,61.91
2022-10-19T18:37:22.877Z,60.19
2022-10-19T18:40:29.533Z,58.12
2022-10-19T18:43:36.211Z,58.05
2022-10-19T18:46:43.288Z,60.04
2022-10-19T18:49:49.913Z,63.65
2022-10-19T18:52:56.468Z,67.13
2022-10-19T18:56:05.019Z,63.38
2022-10-19T18:59:11.636Z,61.23
2022-10-19T19:02:22.668Z,58.67
2022-10-19T19:05:35.985Z,57.75
2022-10-19T19:11:58.076Z,63.92
2022-10-19T19:15:08.200Z,67.00
2022-10-19T19:18:14.830Z,65.05
2022-10-19T19:21:23.523Z,62.89
2022-10-19T19:24:32.206Z,59.89
2022-10-19T19:30:50.803Z,57.55
2022-10-19T19:33:57.387Z,59.47
2022-10-19T19:37:07.411Z,64.85
2022-10-19T19:40:17.885Z,66.85
2022-10-19T19:43:25.582Z,64.17
2022-10-19T19:46:32.347Z,61.49
2022-10-19T19:49:39.065Z,57.97
2022-10-19T19:52:45.757Z,57.92
2022-10-19T19:55:52.855Z,60.05
2022-10-19T19:59:03.454Z,65.30
2022-10-19T20:02:12.133Z,67.05
2022-10-19T20:05:18.796Z,64.17
2022-10-19T20:08:26.514Z,61.75
2022-10-19T20:11:33.990Z,59.78
2022-10-19T20:14:42.606Z,56.73
2022-10-19T20:17:49.468Z,57.85
2022-10-19T20:20:56.008Z,60.41
2022-10-19T20:24:03.143Z,66.09
2022-10-19T20:27:09.889Z,66.94
2022-10-19T20:30:16.601Z,63.52
2022-10-19T20:33:23.373Z,61.16
2022-10-19T20:36:29.942Z,59.85
2022-10-19T20:39:36.636Z,59.67
2022-10-19T20:42:44.126Z,58.21
2022-10-19T20:45:50.804Z,60.25
2022-10-19T20:48:59.668Z,65.09
2022-10-19T20:52:06.535Z,67.56
2022-10-19T20:55:13.448Z,65.95
2022-10-19T20:58:20.056Z,64.23
2022-10-19T21:01:27.403Z,62.52
2022-10-19T21:04:35.660Z,61.27
2022-10-19T21:07:42.280Z,59.51
2022-10-19T21:10:49.079Z,57.01
2022-10-19T21:13:58.585Z,59.30
2022-10-19T21:17:05.375Z,61.80
2022-10-19T21:20:12.673Z,67.52
2022-10-19T21:23:19.304Z,68.35
2022-10-19T21:26:27.524Z,64.83
2022-10-19T21:29:34.228Z,63.99
2022-10-19T21:32:40.827Z,63.73
2022-10-19T21:35:47.516Z,62.90
2022-10-19T21:38:54.410Z,61.74
2022-10-19T21:42:00.923Z,60.72
2022-10-19T21:45:29.392Z,60.05
2022-10-19T21:48:36.660Z,57.90
2022-10-19T21:51:45.779Z,60.31
2022-10-19T21:54:54.298Z,66.90
2022-10-19T21:58:01.204Z,66.96
2022-10-19T22:01:08.988Z,64.00
2022-10-19T22:04:18.215Z,62.94
2022-10-19T22:07:24.875Z,62.68
2022-10-19T22:10:31.490Z,61.81
2022-10-19T22:13:38.895Z,61.28
2022-10-19T22:16:45.472Z,60.40
2022-10-19T22:19:53.340Z,59.12
2022-10-19T22:22:59.859Z,57.72
2022-10-19T22:26:14.652Z,60.92
2022-10-19T22:29:21.667Z,66.59
2022-10-19T22:32:28.240Z,68.36
2022-10-19T22:35:34.806Z,65.57
2022-10-19T22:38:42.198Z,61.99
2022-10-19T22:41:48.695Z,60.00
2022-10-19T22:44:55.244Z,57.78
2022-10-19T22:48:01.858Z,59.33
2022-10-19T22:51:08.686Z,64.75
2022-10-19T22:54:15.443Z,65.44
2022-10-19T22:57:22.067Z,63.39
2022-10-19T23:00:29.075Z,61.43
2022-10-19T23:03:37.682Z,60.60
2022-10-19T23:06:44.491Z,58.63
2022-10-19T23:09:51.112Z,57.98
2022-10-19T23:12:57.741Z,60.71
2022-10-19T23:16:04.400Z,65.51
2022-10-19T23:19:11.149Z,66.19
2022-10-19T23:22:17.671Z,63.02
2022-10-19T23:25:24.303Z,60.56
2022-10-19T23:28:32.825Z,57.69
2022-10-19T23:31:39.565Z,58.55
2022-10-19T23:34:48.391Z,61.24
2022-10-19T23:37:55.592Z,67.14
2022-10-19T23:41:02.576Z,67.64
2022-10-19T23:44:10.422Z,64.82
2022-10-19T23:47:17.003Z,63.01
2022-10-19T23:50:23.796Z,61.43
2022-10-19T23:53:34.644Z,59.69
2022-10-19T23:56:43.689Z,57.16
2022-10-19T23:59:50.736Z,59.37
